Aeroporto :
LOGIN :

Iscrizione | Disclaimer

   EN    FR    IT 

 










Sommario :    VFR   VFR Marginale   IFR   IFR Intensivo   IFR Molto Intensivo
Visibilità : 
Base nubi : 
>= 8 km
>= 3000ft
5 / 8 km
1000 / 3000 ft
1500m / 5 km
500 / 1000 ft
800 / 1500m
200 / 500 ft
< 800m
< 200 ft
Simboli :   Temporali  Nebbia  Neve Forte  Precipitazioni Forti  Vento > 20 kt
SIGMETs :   Varie  Temporali  Ghiacco  Turbolenza  Onda orograficha  Ceneri Vulcaniche






- Altitudine del aeroporto : 124 ft
- Codice IATA : AVN


LFMV - Avignon Caumont

ULTIMO METAR :
  • 270930Z AUTO 34015KT 9999 FEW044 18/09 Q1008 NOSIG

METARs OBSOLETI :
  • 270900Z AUTO 34017KT 310V010 CAVOK 17/08 Q1008 NOSIG
  • 270830Z AUTO 34017KT 310V010 CAVOK 17/08 Q1008 NOSIG
  • 270800Z AUTO 33012KT CAVOK 16/10 Q1007 NOSIG
  • 270730Z AUTO 33010KT CAVOK 15/10 Q1007 NOSIG
  • 270700Z AUTO 33010KT CAVOK 14/10 Q1007 NOSIG

TAF TAF LFMV
Valido dal 27 a 09 ore il 28 a 09 ore UTC


270800Z 2709/2809 34012KT CAVOK
BECMG 2716/2718 28005KT
BECMG 2800/2802 14005KT
PROB30 2804/2808 -SHRA FEW014 SCT030TCU
ATIS : +33 4 90 84 32 84



MetMap, La meteo Aeronautica in un colpo d'occhio ! - Copyright ORBIFLY Dicembre 2007 - Disclaimer

ORBIFLY MET'MAP TEAM :

Programmazione e sviluppo : Alexandra Zaïnal
Concezione : Baudouin d'Aumeries
Supporto tecnico e logistico : Manuel Goepfert
Aiuto : Marc-Olivier Méhu
Aiuto per la traduzione : Arnaldo La Scala




FONTI E CREDITI :

   NOAA